sensor_id;sensor_type;location;lat;lon;timestamp;P1;durP1;ratioP1;P2;durP2;ratioP2
24305;SDS011;12423;48.768;8.850;2023-03-17T00:01:51;6.97;;;3.85;;
24305;SDS011;12423;48.768;8.850;2023-03-17T00:03:54;6.32;;;3.60;;
24305;SDS011;12423;48.768;8.850;2023-03-17T00:05:56;6.80;;;3.92;;
24305;SDS011;12423;48.768;8.850;2023-03-17T00:08:01;6.53;;;3.17;;
24305;SDS011;12423;48.768;8.850;2023-03-17T00:10:12;6.95;;;3.60;;
24305;SDS011;12423;48.768;8.850;2023-03-17T00:12:15;7.88;;;3.92;;
24305;SDS011;12423;48.768;8.850;2023-03-17T00:14:17;8.05;;;3.83;;
24305;SDS011;12423;48.768;8.850;2023-03-17T00:16:20;6.85;;;3.28;;
24305;SDS011;12423;48.768;8.850;2023-03-17T00:18:24;7.53;;;3.53;;
24305;SDS011;12423;48.768;8.850;2023-03-17T00:20:27;5.95;;;3.30;;
24305;SDS011;12423;48.768;8.850;2023-03-17T00:22:30;6.57;;;3.45;;
24305;SDS011;12423;48.768;8.850;2023-03-17T00:24:31;9.75;;;3.03;;
24305;SDS011;12423;48.768;8.850;2023-03-17T00:26:32;7.53;;;3.35;;
24305;SDS011;12423;48.768;8.850;2023-03-17T00:28:33;5.40;;;2.90;;
24305;SDS011;12423;48.768;8.850;2023-03-17T00:30:34;10.40;;;3.45;;
24305;SDS011;12423;48.768;8.850;2023-03-17T00:32:36;7.22;;;3.95;;
24305;SDS011;12423;48.768;8.850;2023-03-17T00:34:39;6.28;;;3.08;;
24305;SDS011;12423;48.768;8.850;2023-03-17T00:36:43;6.03;;;3.00;;
24305;SDS011;12423;48.768;8.850;2023-03-17T00:38:46;6.13;;;3.15;;
24305;SDS011;12423;48.768;8.850;2023-03-17T00:40:48;5.40;;;2.85;;
24305;SDS011;12423;48.768;8.850;2023-03-17T00:42:49;7.90;;;2.88;;
24305;SDS011;12423;48.768;8.850;2023-03-17T00:44:51;4.63;;;2.25;;
24305;SDS011;12423;48.768;8.850;2023-03-17T00:46:52;5.80;;;3.10;;
24305;SDS011;12423;48.768;8.850;2023-03-17T00:48:54;6.78;;;3.10;;
24305;SDS011;12423;48.768;8.850;2023-03-17T00:50:55;6.28;;;2.97;;
24305;SDS011;12423;48.768;8.850;2023-03-17T00:52:56;5.35;;;2.67;;
24305;SDS011;12423;48.768;8.850;2023-03-17T00:54:57;6.13;;;2.83;;
24305;SDS011;12423;48.768;8.850;2023-03-17T00:56:58;5.97;;;3.00;;
24305;SDS011;12423;48.768;8.850;2023-03-17T00:58:59;4.70;;;2.22;;
24305;SDS011;12423;48.768;8.850;2023-03-17T01:01:01;5.35;;;2.70;;
24305;SDS011;12423;48.768;8.850;2023-03-17T01:03:01;5.00;;;2.90;;
24305;SDS011;12423;48.768;8.850;2023-03-17T01:05:03;6.30;;;2.58;;
24305;SDS011;12423;48.768;8.850;2023-03-17T01:07:08;6.65;;;2.60;;
24305;SDS011;12423;48.768;8.850;2023-03-17T01:09:12;6.22;;;3.20;;
24305;SDS011;12423;48.768;8.850;2023-03-17T01:11:16;5.57;;;2.85;;
24305;SDS011;12423;48.768;8.850;2023-03-17T01:13:18;5.00;;;2.35;;
24305;SDS011;12423;48.768;8.850;2023-03-17T01:15:19;4.13;;;2.35;;
24305;SDS011;12423;48.768;8.850;2023-03-17T01:17:21;3.45;;;2.05;;
24305;SDS011;12423;48.768;8.850;2023-03-17T01:19:22;4.25;;;2.47;;
24305;SDS011;12423;48.768;8.850;2023-03-17T01:21:23;7.00;;;2.88;;
24305;SDS011;12423;48.768;8.850;2023-03-17T01:23:24;5.32;;;2.80;;
24305;SDS011;12423;48.768;8.850;2023-03-17T01:25:27;4.15;;;2.25;;
24305;SDS011;12423;48.768;8.850;2023-03-17T01:27:28;4.63;;;2.30;;
24305;SDS011;12423;48.768;8.850;2023-03-17T01:29:34;6.68;;;2.22;;
24305;SDS011;12423;48.768;8.850;2023-03-17T01:31:36;6.13;;;2.60;;
24305;SDS011;12423;48.768;8.850;2023-03-17T01:33:39;5.00;;;2.60;;
24305;SDS011;12423;48.768;8.850;2023-03-17T01:35:41;4.28;;;2.28;;
24305;SDS011;12423;48.768;8.850;2023-03-17T01:37:43;5.30;;;2.55;;
24305;SDS011;12423;48.768;8.850;2023-03-17T01:39:45;3.72;;;2.25;;
24305;SDS011;12423;48.768;8.850;2023-03-17T01:41:47;6.88;;;2.42;;
24305;SDS011;12423;48.768;8.850;2023-03-17T01:43:48;4.20;;;2.30;;
24305;SDS011;12423;48.768;8.850;2023-03-17T01:48:15;6.35;;;2.60;;
24305;SDS011;12423;48.768;8.850;2023-03-17T01:50:17;4.53;;;2.75;;
24305;SDS011;12423;48.768;8.850;2023-03-17T01:52:19;4.35;;;2.05;;
24305;SDS011;12423;48.768;8.850;2023-03-17T01:54:28;4.95;;;2.42;;
24305;SDS011;12423;48.768;8.850;2023-03-17T01:56:34;5.78;;;2.40;;
24305;SDS011;12423;48.768;8.850;2023-03-17T01:58:37;5.22;;;2.50;;
24305;SDS011;12423;48.768;8.850;2023-03-17T02:00:39;4.35;;;2.28;;
24305;SDS011;12423;48.768;8.850;2023-03-17T02:02:41;5.00;;;2.20;;
24305;SDS011;12423;48.768;8.850;2023-03-17T02:04:48;4.85;;;2.45;;
24305;SDS011;12423;48.768;8.850;2023-03-17T02:06:51;3.97;;;2.20;;
24305;SDS011;12423;48.768;8.850;2023-03-17T02:08:52;5.90;;;2.47;;
24305;SDS011;12423;48.768;8.850;2023-03-17T02:10:54;4.10;;;2.42;;
24305;SDS011;12423;48.768;8.850;2023-03-17T02:12:57;3.72;;;2.45;;
24305;SDS011;12423;48.768;8.850;2023-03-17T02:15:04;5.10;;;2.30;;
24305;SDS011;12423;48.768;8.850;2023-03-17T02:17:05;8.50;;;2.90;;
24305;SDS011;12423;48.768;8.850;2023-03-17T02:19:07;6.03;;;2.15;;
24305;SDS011;12423;48.768;8.850;2023-03-17T02:23:31;7.35;;;2.35;;
24305;SDS011;12423;48.768;8.850;2023-03-17T02:25:33;5.35;;;1.77;;
24305;SDS011;12423;48.768;8.850;2023-03-17T02:27:38;3.63;;;1.90;;
24305;SDS011;12423;48.768;8.850;2023-03-17T02:29:42;6.35;;;2.58;;
24305;SDS011;12423;48.768;8.850;2023-03-17T02:31:45;3.83;;;2.40;;
24305;SDS011;12423;48.768;8.850;2023-03-17T02:33:46;5.95;;;2.30;;
24305;SDS011;12423;48.768;8.850;2023-03-17T02:35:47;6.68;;;2.47;;
24305;SDS011;12423;48.768;8.850;2023-03-17T02:37:50;4.38;;;2.33;;
24305;SDS011;12423;48.768;8.850;2023-03-17T02:39:51;4.40;;;2.30;;
24305;SDS011;12423;48.768;8.850;2023-03-17T02:41:52;5.28;;;2.13;;
24305;SDS011;12423;48.768;8.850;2023-03-17T02:43:53;4.13;;;1.98;;
24305;SDS011;12423;48.768;8.850;2023-03-17T02:45:54;4.20;;;2.10;;
24305;SDS011;12423;48.768;8.850;2023-03-17T02:47:55;4.53;;;2.08;;
24305;SDS011;12423;48.768;8.850;2023-03-17T02:49:57;4.13;;;2.00;;
24305;SDS011;12423;48.768;8.850;2023-03-17T02:51:58;4.80;;;2.17;;
24305;SDS011;12423;48.768;8.850;2023-03-17T02:53:59;5.20;;;2.00;;
24305;SDS011;12423;48.768;8.850;2023-03-17T02:56:00;5.15;;;2.20;;
24305;SDS011;12423;48.768;8.850;2023-03-17T02:58:01;4.25;;;2.00;;
24305;SDS011;12423;48.768;8.850;2023-03-17T03:00:03;6.07;;;2.08;;
24305;SDS011;12423;48.768;8.850;2023-03-17T03:02:04;5.30;;;2.40;;
24305;SDS011;12423;48.768;8.850;2023-03-17T03:04:05;5.93;;;1.98;;
24305;SDS011;12423;48.768;8.850;2023-03-17T03:06:06;5.82;;;1.70;;
24305;SDS011;12423;48.768;8.850;2023-03-17T03:08:07;3.58;;;1.90;;
24305;SDS011;12423;48.768;8.850;2023-03-17T03:10:09;5.28;;;2.22;;
24305;SDS011;12423;48.768;8.850;2023-03-17T03:12:10;4.35;;;2.00;;
24305;SDS011;12423;48.768;8.850;2023-03-17T03:14:11;4.68;;;1.98;;
24305;SDS011;12423;48.768;8.850;2023-03-17T03:16:13;5.00;;;2.00;;
24305;SDS011;12423;48.768;8.850;2023-03-17T03:18:14;8.57;;;2.08;;
24305;SDS011;12423;48.768;8.850;2023-03-17T03:20:15;4.15;;;1.90;;
24305;SDS011;12423;48.768;8.850;2023-03-17T03:22:16;4.22;;;1.73;;
24305;SDS011;12423;48.768;8.850;2023-03-17T03:24:17;3.55;;;1.67;;
24305;SDS011;12423;48.768;8.850;2023-03-17T03:26:18;3.70;;;2.00;;
24305;SDS011;12423;48.768;8.850;2023-03-17T03:28:19;4.55;;;2.10;;
24305;SDS011;12423;48.768;8.850;2023-03-17T03:30:20;4.93;;;1.88;;
24305;SDS011;12423;48.768;8.850;2023-03-17T03:32:21;4.72;;;2.38;;
24305;SDS011;12423;48.768;8.850;2023-03-17T03:34:22;4.18;;;2.25;;
24305;SDS011;12423;48.768;8.850;2023-03-17T03:36:23;4.82;;;1.95;;
24305;SDS011;12423;48.768;8.850;2023-03-17T03:38:25;5.03;;;1.83;;
24305;SDS011;12423;48.768;8.850;2023-03-17T03:40:27;5.25;;;2.08;;
24305;SDS011;12423;48.768;8.850;2023-03-17T03:42:28;4.50;;;1.75;;
24305;SDS011;12423;48.768;8.850;2023-03-17T03:44:28;4.70;;;2.20;;
24305;SDS011;12423;48.768;8.850;2023-03-17T03:46:29;3.72;;;1.85;;
24305;SDS011;12423;48.768;8.850;2023-03-17T03:48:30;4.85;;;1.80;;
24305;SDS011;12423;48.768;8.850;2023-03-17T03:50:31;4.78;;;2.22;;
24305;SDS011;12423;48.768;8.850;2023-03-17T03:52:33;3.00;;;1.70;;
24305;SDS011;12423;48.768;8.850;2023-03-17T03:54:34;4.40;;;2.35;;
24305;SDS011;12423;48.768;8.850;2023-03-17T03:56:35;4.82;;;2.05;;
24305;SDS011;12423;48.768;8.850;2023-03-17T03:58:36;5.43;;;2.00;;
24305;SDS011;12423;48.768;8.850;2023-03-17T04:00:37;3.15;;;1.90;;
24305;SDS011;12423;48.768;8.850;2023-03-17T04:02:39;3.28;;;1.60;;
24305;SDS011;12423;48.768;8.850;2023-03-17T04:04:41;4.10;;;1.92;;
24305;SDS011;12423;48.768;8.850;2023-03-17T04:06:42;7.60;;;1.95;;
24305;SDS011;12423;48.768;8.850;2023-03-17T04:08:43;5.20;;;2.28;;
24305;SDS011;12423;48.768;8.850;2023-03-17T04:10:44;4.15;;;1.70;;
24305;SDS011;12423;48.768;8.850;2023-03-17T04:12:45;3.90;;;2.05;;
24305;SDS011;12423;48.768;8.850;2023-03-17T04:14:46;4.97;;;2.40;;
24305;SDS011;12423;48.768;8.850;2023-03-17T04:16:47;2.90;;;2.00;;
24305;SDS011;12423;48.768;8.850;2023-03-17T04:18:48;4.05;;;2.30;;
24305;SDS011;12423;48.768;8.850;2023-03-17T04:20:49;5.40;;;1.88;;
24305;SDS011;12423;48.768;8.850;2023-03-17T04:22:50;5.70;;;2.65;;
24305;SDS011;12423;48.768;8.850;2023-03-17T04:24:51;4.25;;;2.38;;
24305;SDS011;12423;48.768;8.850;2023-03-17T04:26:53;5.75;;;2.40;;
24305;SDS011;12423;48.768;8.850;2023-03-17T04:28:54;6.18;;;2.83;;
24305;SDS011;12423;48.768;8.850;2023-03-17T04:30:55;7.85;;;2.95;;
24305;SDS011;12423;48.768;8.850;2023-03-17T04:32:55;8.38;;;3.50;;
24305;SDS011;12423;48.768;8.850;2023-03-17T04:34:56;6.50;;;3.45;;
24305;SDS011;12423;48.768;8.850;2023-03-17T04:36:58;6.93;;;3.40;;
24305;SDS011;12423;48.768;8.850;2023-03-17T04:38:59;7.28;;;3.70;;
24305;SDS011;12423;48.768;8.850;2023-03-17T04:41:00;3.95;;;2.47;;
24305;SDS011;12423;48.768;8.850;2023-03-17T04:43:00;4.13;;;2.22;;
24305;SDS011;12423;48.768;8.850;2023-03-17T04:45:02;4.13;;;2.33;;
24305;SDS011;12423;48.768;8.850;2023-03-17T04:47:04;4.88;;;2.08;;
24305;SDS011;12423;48.768;8.850;2023-03-17T04:49:05;4.40;;;2.35;;
24305;SDS011;12423;48.768;8.850;2023-03-17T04:51:06;5.03;;;2.50;;
24305;SDS011;12423;48.768;8.850;2023-03-17T04:53:07;6.75;;;2.15;;
24305;SDS011;12423;48.768;8.850;2023-03-17T04:55:08;4.43;;;2.40;;
24305;SDS011;12423;48.768;8.850;2023-03-17T04:57:11;5.18;;;2.30;;
24305;SDS011;12423;48.768;8.850;2023-03-17T04:59:12;6.22;;;2.20;;
24305;SDS011;12423;48.768;8.850;2023-03-17T05:01:13;3.67;;;1.80;;
24305;SDS011;12423;48.768;8.850;2023-03-17T05:03:14;4.97;;;2.50;;
24305;SDS011;12423;48.768;8.850;2023-03-17T05:05:15;4.53;;;2.03;;
24305;SDS011;12423;48.768;8.850;2023-03-17T05:07:16;4.60;;;2.05;;
24305;SDS011;12423;48.768;8.850;2023-03-17T05:09:17;4.20;;;2.13;;
24305;SDS011;12423;48.768;8.850;2023-03-17T05:11:18;4.95;;;2.72;;
24305;SDS011;12423;48.768;8.850;2023-03-17T05:13:19;5.47;;;2.10;;
24305;SDS011;12423;48.768;8.850;2023-03-17T05:15:21;5.65;;;2.20;;
24305;SDS011;12423;48.768;8.850;2023-03-17T05:17:22;5.10;;;2.45;;
24305;SDS011;12423;48.768;8.850;2023-03-17T05:19:23;5.20;;;2.38;;
24305;SDS011;12423;48.768;8.850;2023-03-17T05:21:23;5.45;;;2.45;;
24305;SDS011;12423;48.768;8.850;2023-03-17T05:23:24;3.92;;;2.13;;
24305;SDS011;12423;48.768;8.850;2023-03-17T05:25:26;5.22;;;2.63;;
24305;SDS011;12423;48.768;8.850;2023-03-17T05:27:26;7.30;;;3.38;;
24305;SDS011;12423;48.768;8.850;2023-03-17T05:29:27;11.88;;;4.88;;
24305;SDS011;12423;48.768;8.850;2023-03-17T05:31:28;7.25;;;2.00;;
24305;SDS011;12423;48.768;8.850;2023-03-17T05:33:30;6.13;;;2.15;;
24305;SDS011;12423;48.768;8.850;2023-03-17T05:35:31;3.47;;;1.90;;
24305;SDS011;12423;48.768;8.850;2023-03-17T05:37:32;3.60;;;1.95;;
24305;SDS011;12423;48.768;8.850;2023-03-17T05:39:33;5.72;;;2.20;;
24305;SDS011;12423;48.768;8.850;2023-03-17T05:41:34;3.47;;;2.15;;
24305;SDS011;12423;48.768;8.850;2023-03-17T05:43:35;6.88;;;2.38;;
24305;SDS011;12423;48.768;8.850;2023-03-17T05:45:36;4.95;;;2.45;;
24305;SDS011;12423;48.768;8.850;2023-03-17T05:47:38;4.75;;;2.65;;
24305;SDS011;12423;48.768;8.850;2023-03-17T05:49:39;4.13;;;2.28;;
24305;SDS011;12423;48.768;8.850;2023-03-17T05:51:40;5.45;;;2.60;;
24305;SDS011;12423;48.768;8.850;2023-03-17T05:53:41;5.28;;;2.47;;
24305;SDS011;12423;48.768;8.850;2023-03-17T05:55:43;5.07;;;2.35;;
24305;SDS011;12423;48.768;8.850;2023-03-17T05:57:44;5.82;;;2.83;;
24305;SDS011;12423;48.768;8.850;2023-03-17T05:59:46;6.30;;;2.67;;
24305;SDS011;12423;48.768;8.850;2023-03-17T06:01:47;4.18;;;2.17;;
24305;SDS011;12423;48.768;8.850;2023-03-17T06:03:48;3.95;;;2.47;;
24305;SDS011;12423;48.768;8.850;2023-03-17T06:05:49;6.25;;;3.00;;
24305;SDS011;12423;48.768;8.850;2023-03-17T06:07:51;5.85;;;2.88;;
24305;SDS011;12423;48.768;8.850;2023-03-17T06:09:52;4.60;;;2.83;;
24305;SDS011;12423;48.768;8.850;2023-03-17T06:11:53;6.13;;;2.47;;
24305;SDS011;12423;48.768;8.850;2023-03-17T06:13:54;7.60;;;2.58;;
24305;SDS011;12423;48.768;8.850;2023-03-17T06:15:55;5.40;;;2.40;;
24305;SDS011;12423;48.768;8.850;2023-03-17T06:17:57;4.32;;;2.40;;
24305;SDS011;12423;48.768;8.850;2023-03-17T06:19:58;4.55;;;2.67;;
24305;SDS011;12423;48.768;8.850;2023-03-17T06:21:59;4.53;;;2.47;;
24305;SDS011;12423;48.768;8.850;2023-03-17T06:24:01;3.83;;;2.10;;
24305;SDS011;12423;48.768;8.850;2023-03-17T06:26:02;6.28;;;2.33;;
24305;SDS011;12423;48.768;8.850;2023-03-17T06:28:03;9.52;;;2.75;;
24305;SDS011;12423;48.768;8.850;2023-03-17T06:30:05;6.63;;;3.05;;
24305;SDS011;12423;48.768;8.850;2023-03-17T06:32:07;6.45;;;2.92;;
24305;SDS011;12423;48.768;8.850;2023-03-17T06:34:08;5.90;;;2.70;;
24305;SDS011;12423;48.768;8.850;2023-03-17T06:36:09;6.95;;;2.35;;
24305;SDS011;12423;48.768;8.850;2023-03-17T06:38:10;5.20;;;2.58;;
24305;SDS011;12423;48.768;8.850;2023-03-17T06:40:11;6.95;;;2.70;;
24305;SDS011;12423;48.768;8.850;2023-03-17T06:42:13;7.97;;;2.35;;
24305;SDS011;12423;48.768;8.850;2023-03-17T06:44:14;6.25;;;2.75;;
24305;SDS011;12423;48.768;8.850;2023-03-17T06:46:15;5.15;;;2.42;;
24305;SDS011;12423;48.768;8.850;2023-03-17T06:48:17;4.82;;;2.42;;
24305;SDS011;12423;48.768;8.850;2023-03-17T06:50:18;6.07;;;2.83;;
24305;SDS011;12423;48.768;8.850;2023-03-17T06:52:19;6.53;;;2.40;;
24305;SDS011;12423;48.768;8.850;2023-03-17T06:54:21;4.88;;;2.30;;
24305;SDS011;12423;48.768;8.850;2023-03-17T06:56:24;4.35;;;2.28;;
24305;SDS011;12423;48.768;8.850;2023-03-17T06:58:26;5.30;;;2.83;;
24305;SDS011;12423;48.768;8.850;2023-03-17T07:00:27;5.97;;;3.10;;
24305;SDS011;12423;48.768;8.850;2023-03-17T07:02:28;7.97;;;3.35;;
24305;SDS011;12423;48.768;8.850;2023-03-17T07:04:29;6.78;;;2.90;;
24305;SDS011;12423;48.768;8.850;2023-03-17T07:06:31;6.75;;;3.00;;
24305;SDS011;12423;48.768;8.850;2023-03-17T07:08:33;4.88;;;2.88;;
24305;SDS011;12423;48.768;8.850;2023-03-17T07:10:35;4.38;;;2.58;;
24305;SDS011;12423;48.768;8.850;2023-03-17T07:12:36;8.15;;;2.95;;
24305;SDS011;12423;48.768;8.850;2023-03-17T07:14:37;4.40;;;2.22;;
24305;SDS011;12423;48.768;8.850;2023-03-17T07:16:38;16.65;;;2.72;;
24305;SDS011;12423;48.768;8.850;2023-03-17T07:18:39;5.20;;;2.30;;
24305;SDS011;12423;48.768;8.850;2023-03-17T07:20:40;6.05;;;2.85;;
24305;SDS011;12423;48.768;8.850;2023-03-17T07:22:41;5.10;;;2.63;;
24305;SDS011;12423;48.768;8.850;2023-03-17T07:24:42;5.85;;;3.00;;
24305;SDS011;12423;48.768;8.850;2023-03-17T07:26:44;5.38;;;2.33;;
24305;SDS011;12423;48.768;8.850;2023-03-17T07:28:45;5.25;;;2.33;;
24305;SDS011;12423;48.768;8.850;2023-03-17T07:30:47;7.10;;;2.75;;
24305;SDS011;12423;48.768;8.850;2023-03-17T07:32:48;5.40;;;2.38;;
24305;SDS011;12423;48.768;8.850;2023-03-17T07:34:49;4.57;;;2.15;;
24305;SDS011;12423;48.768;8.850;2023-03-17T07:36:50;12.73;;;2.95;;
24305;SDS011;12423;48.768;8.850;2023-03-17T07:38:51;4.38;;;2.42;;
24305;SDS011;12423;48.768;8.850;2023-03-17T07:40:52;5.80;;;2.58;;
24305;SDS011;12423;48.768;8.850;2023-03-17T07:42:54;5.63;;;2.72;;
24305;SDS011;12423;48.768;8.850;2023-03-17T07:44:55;4.55;;;2.63;;
24305;SDS011;12423;48.768;8.850;2023-03-17T07:46:56;4.85;;;2.50;;
24305;SDS011;12423;48.768;8.850;2023-03-17T07:48:57;5.32;;;2.15;;
24305;SDS011;12423;48.768;8.850;2023-03-17T07:50:58;5.88;;;2.63;;
24305;SDS011;12423;48.768;8.850;2023-03-17T07:53:00;6.00;;;2.47;;
24305;SDS011;12423;48.768;8.850;2023-03-17T07:55:01;4.68;;;2.08;;
24305;SDS011;12423;48.768;8.850;2023-03-17T07:57:02;4.15;;;2.40;;
24305;SDS011;12423;48.768;8.850;2023-03-17T07:59:04;4.70;;;2.40;;
24305;SDS011;12423;48.768;8.850;2023-03-17T08:01:07;4.63;;;2.13;;
24305;SDS011;12423;48.768;8.850;2023-03-17T08:03:08;4.25;;;2.42;;
24305;SDS011;12423;48.768;8.850;2023-03-17T08:05:10;4.43;;;2.75;;
24305;SDS011;12423;48.768;8.850;2023-03-17T08:07:11;6.50;;;2.60;;
24305;SDS011;12423;48.768;8.850;2023-03-17T08:09:12;5.63;;;2.88;;
24305;SDS011;12423;48.768;8.850;2023-03-17T08:11:13;5.85;;;2.58;;
24305;SDS011;12423;48.768;8.850;2023-03-17T08:13:14;4.97;;;2.63;;
24305;SDS011;12423;48.768;8.850;2023-03-17T08:15:15;5.82;;;2.78;;
24305;SDS011;12423;48.768;8.850;2023-03-17T08:17:16;4.88;;;2.83;;
24305;SDS011;12423;48.768;8.850;2023-03-17T08:19:17;4.40;;;2.22;;
24305;SDS011;12423;48.768;8.850;2023-03-17T08:21:18;7.25;;;2.72;;
24305;SDS011;12423;48.768;8.850;2023-03-17T08:23:19;6.13;;;2.05;;
24305;SDS011;12423;48.768;8.850;2023-03-17T08:25:21;9.20;;;2.30;;
24305;SDS011;12423;48.768;8.850;2023-03-17T08:27:22;7.60;;;2.40;;
24305;SDS011;12423;48.768;8.850;2023-03-17T08:29:23;3.72;;;1.98;;
24305;SDS011;12423;48.768;8.850;2023-03-17T08:31:24;7.30;;;2.03;;
24305;SDS011;12423;48.768;8.850;2023-03-17T08:33:25;6.03;;;2.67;;
24305;SDS011;12423;48.768;8.850;2023-03-17T08:35:27;5.28;;;2.38;;
24305;SDS011;12423;48.768;8.850;2023-03-17T08:37:28;7.43;;;2.17;;
24305;SDS011;12423;48.768;8.850;2023-03-17T08:39:29;3.65;;;2.00;;
24305;SDS011;12423;48.768;8.850;2023-03-17T08:41:31;3.42;;;1.60;;
24305;SDS011;12423;48.768;8.850;2023-03-17T08:43:32;5.95;;;2.20;;
24305;SDS011;12423;48.768;8.850;2023-03-17T08:45:34;3.85;;;1.90;;
24305;SDS011;12423;48.768;8.850;2023-03-17T08:47:36;5.10;;;2.22;;
24305;SDS011;12423;48.768;8.850;2023-03-17T08:49:37;4.53;;;1.73;;
24305;SDS011;12423;48.768;8.850;2023-03-17T08:51:38;3.72;;;1.40;;
24305;SDS011;12423;48.768;8.850;2023-03-17T08:53:40;4.43;;;2.40;;
24305;SDS011;12423;48.768;8.850;2023-03-17T08:55:41;4.72;;;1.63;;
24305;SDS011;12423;48.768;8.850;2023-03-17T08:57:42;4.82;;;1.58;;
24305;SDS011;12423;48.768;8.850;2023-03-17T08:59:45;3.97;;;1.88;;
24305;SDS011;12423;48.768;8.850;2023-03-17T09:01:46;3.25;;;1.42;;
24305;SDS011;12423;48.768;8.850;2023-03-17T09:03:50;3.60;;;2.08;;
24305;SDS011;12423;48.768;8.850;2023-03-17T09:05:53;2.83;;;1.63;;
24305;SDS011;12423;48.768;8.850;2023-03-17T09:07:54;4.13;;;2.03;;
24305;SDS011;12423;48.768;8.850;2023-03-17T09:09:55;4.60;;;1.75;;
24305;SDS011;12423;48.768;8.850;2023-03-17T09:11:56;2.90;;;1.45;;
24305;SDS011;12423;48.768;8.850;2023-03-17T09:13:58;3.05;;;1.48;;
24305;SDS011;12423;48.768;8.850;2023-03-17T09:15:59;4.53;;;1.70;;
24305;SDS011;12423;48.768;8.850;2023-03-17T09:18:00;3.92;;;1.73;;
24305;SDS011;12423;48.768;8.850;2023-03-17T09:20:02;4.00;;;2.03;;
24305;SDS011;12423;48.768;8.850;2023-03-17T09:22:06;2.78;;;1.52;;
24305;SDS011;12423;48.768;8.850;2023-03-17T09:24:07;3.47;;;1.60;;
24305;SDS011;12423;48.768;8.850;2023-03-17T09:26:08;9.02;;;2.15;;
24305;SDS011;12423;48.768;8.850;2023-03-17T09:28:10;2.95;;;1.35;;
24305;SDS011;12423;48.768;8.850;2023-03-17T09:30:11;5.25;;;2.58;;
24305;SDS011;12423;48.768;8.850;2023-03-17T09:32:14;2.55;;;1.40;;
24305;SDS011;12423;48.768;8.850;2023-03-17T09:34:15;3.80;;;1.73;;
24305;SDS011;12423;48.768;8.850;2023-03-17T09:36:16;5.50;;;2.50;;
24305;SDS011;12423;48.768;8.850;2023-03-17T09:38:17;4.72;;;1.80;;
24305;SDS011;12423;48.768;8.850;2023-03-17T09:40:19;13.15;;;2.92;;
24305;SDS011;12423;48.768;8.850;2023-03-17T09:49:19;3.15;;;1.30;;
24305;SDS011;12423;48.768;8.850;2023-03-17T09:51:27;3.67;;;1.60;;
24305;SDS011;12423;48.768;8.850;2023-03-17T09:53:35;3.85;;;1.67;;
24305;SDS011;12423;48.768;8.850;2023-03-17T09:55:39;3.47;;;1.50;;
24305;SDS011;12423;48.768;8.850;2023-03-17T09:57:41;3.60;;;1.15;;
24305;SDS011;12423;48.768;8.850;2023-03-17T09:59:44;4.78;;;1.17;;
24305;SDS011;12423;48.768;8.850;2023-03-17T10:01:47;2.70;;;1.42;;
24305;SDS011;12423;48.768;8.850;2023-03-17T10:03:49;2.72;;;1.30;;
24305;SDS011;12423;48.768;8.850;2023-03-17T10:05:51;2.30;;;1.05;;
24305;SDS011;12423;48.768;8.850;2023-03-17T10:13:01;3.10;;;1.30;;
24305;SDS011;12423;48.768;8.850;2023-03-17T10:15:26;4.30;;;1.00;;
24305;SDS011;12423;48.768;8.850;2023-03-17T10:17:38;2.78;;;1.63;;
24305;SDS011;12423;48.768;8.850;2023-03-17T10:19:44;3.38;;;1.48;;
24305;SDS011;12423;48.768;8.850;2023-03-17T10:21:54;2.88;;;1.48;;
24305;SDS011;12423;48.768;8.850;2023-03-17T10:24:00;3.05;;;1.25;;
24305;SDS011;12423;48.768;8.850;2023-03-17T10:26:12;3.60;;;1.85;;
24305;SDS011;12423;48.768;8.850;2023-03-17T10:28:34;6.00;;;1.85;;
24305;SDS011;12423;48.768;8.850;2023-03-17T10:30:38;2.90;;;1.42;;
24305;SDS011;12423;48.768;8.850;2023-03-17T10:32:39;6.55;;;1.38;;
24305;SDS011;12423;48.768;8.850;2023-03-17T10:34:41;2.65;;;1.30;;
24305;SDS011;12423;48.768;8.850;2023-03-17T10:36:44;2.72;;;1.20;;
24305;SDS011;12423;48.768;8.850;2023-03-17T10:38:49;5.80;;;1.58;;
24305;SDS011;12423;48.768;8.850;2023-03-17T10:40:56;7.15;;;1.50;;
24305;SDS011;12423;48.768;8.850;2023-03-17T10:43:00;4.20;;;1.60;;
24305;SDS011;12423;48.768;8.850;2023-03-17T10:45:13;4.00;;;1.25;;
24305;SDS011;12423;48.768;8.850;2023-03-17T10:47:29;4.95;;;1.52;;
24305;SDS011;12423;48.768;8.850;2023-03-17T10:49:34;3.60;;;1.50;;
24305;SDS011;12423;48.768;8.850;2023-03-17T10:51:36;8.52;;;1.58;;
24305;SDS011;12423;48.768;8.850;2023-03-17T10:53:38;6.20;;;1.48;;
24305;SDS011;12423;48.768;8.850;2023-03-17T10:55:50;3.88;;;1.40;;
24305;SDS011;12423;48.768;8.850;2023-03-17T10:57:55;8.15;;;1.52;;
24305;SDS011;12423;48.768;8.850;2023-03-17T10:59:58;6.82;;;1.70;;
24305;SDS011;12423;48.768;8.850;2023-03-17T11:02:05;6.93;;;1.58;;
24305;SDS011;12423;48.768;8.850;2023-03-17T11:06:37;6.68;;;1.95;;
24305;SDS011;12423;48.768;8.850;2023-03-17T11:08:49;5.07;;;1.83;;
24305;SDS011;12423;48.768;8.850;2023-03-17T11:10:53;6.35;;;1.83;;
24305;SDS011;12423;48.768;8.850;2023-03-17T11:13:00;8.60;;;1.92;;
24305;SDS011;12423;48.768;8.850;2023-03-17T11:15:02;5.82;;;1.88;;
24305;SDS011;12423;48.768;8.850;2023-03-17T11:17:14;4.97;;;2.03;;
24305;SDS011;12423;48.768;8.850;2023-03-17T11:19:18;4.93;;;2.25;;
24305;SDS011;12423;48.768;8.850;2023-03-17T11:21:58;11.40;;;2.20;;
24305;SDS011;12423;48.768;8.850;2023-03-17T11:26:15;3.67;;;1.30;;
24305;SDS011;12423;48.768;8.850;2023-03-17T11:28:28;4.45;;;1.50;;
24305;SDS011;12423;48.768;8.850;2023-03-17T11:30:40;2.75;;;1.30;;
24305;SDS011;12423;48.768;8.850;2023-03-17T11:37:19;4.85;;;1.30;;
24305;SDS011;12423;48.768;8.850;2023-03-17T11:39:35;4.03;;;1.20;;
24305;SDS011;12423;48.768;8.850;2023-03-17T11:49:01;3.08;;;1.25;;
24305;SDS011;12423;48.768;8.850;2023-03-17T11:53:51;3.95;;;1.00;;
24305;SDS011;12423;48.768;8.850;2023-03-17T11:56:02;3.78;;;1.75;;
24305;SDS011;12423;48.768;8.850;2023-03-17T11:58:10;5.28;;;1.10;;
24305;SDS011;12423;48.768;8.850;2023-03-17T12:00:37;5.20;;;1.00;;
24305;SDS011;12423;48.768;8.850;2023-03-17T12:02:44;3.90;;;1.17;;
24305;SDS011;12423;48.768;8.850;2023-03-17T12:04:54;7.93;;;0.90;;
24305;SDS011;12423;48.768;8.850;2023-03-17T12:06:59;4.82;;;1.08;;
24305;SDS011;12423;48.768;8.850;2023-03-17T12:09:25;2.03;;;0.75;;
24305;SDS011;12423;48.768;8.850;2023-03-17T12:11:34;1.77;;;0.73;;
24305;SDS011;12423;48.768;8.850;2023-03-17T12:13:44;2.40;;;0.95;;
24305;SDS011;12423;48.768;8.850;2023-03-17T12:15:49;3.92;;;1.17;;
24305;SDS011;12423;48.768;8.850;2023-03-17T12:18:01;3.75;;;0.93;;
24305;SDS011;12423;48.768;8.850;2023-03-17T12:20:13;3.45;;;1.00;;
24305;SDS011;12423;48.768;8.850;2023-03-17T12:22:23;1.98;;;0.90;;
24305;SDS011;12423;48.768;8.850;2023-03-17T12:24:35;4.53;;;1.23;;
24305;SDS011;12423;48.768;8.850;2023-03-17T12:29:11;2.30;;;1.00;;
24305;SDS011;12423;48.768;8.850;2023-03-17T12:31:18;3.63;;;0.65;;
24305;SDS011;12423;48.768;8.850;2023-03-17T12:33:30;1.83;;;0.88;;
24305;SDS011;12423;48.768;8.850;2023-03-17T12:35:43;3.05;;;0.75;;
24305;SDS011;12423;48.768;8.850;2023-03-17T12:37:44;1.50;;;0.70;;
24305;SDS011;12423;48.768;8.850;2023-03-17T12:39:48;2.92;;;0.80;;
24305;SDS011;12423;48.768;8.850;2023-03-17T12:55:13;2.65;;;0.95;;
24305;SDS011;12423;48.768;8.850;2023-03-17T12:57:18;2.58;;;0.88;;
24305;SDS011;12423;48.768;8.850;2023-03-17T12:59:23;2.53;;;0.70;;
24305;SDS011;12423;48.768;8.850;2023-03-17T13:01:29;4.72;;;0.77;;
24305;SDS011;12423;48.768;8.850;2023-03-17T13:03:33;4.45;;;0.90;;
24305;SDS011;12423;48.768;8.850;2023-03-17T13:05:37;2.78;;;1.10;;
24305;SDS011;12423;48.768;8.850;2023-03-17T13:07:40;1.83;;;0.85;;
24305;SDS011;12423;48.768;8.850;2023-03-17T13:10:11;3.47;;;0.90;;
24305;SDS011;12423;48.768;8.850;2023-03-17T13:12:57;3.25;;;1.00;;
24305;SDS011;12423;48.768;8.850;2023-03-17T13:15:18;3.28;;;0.88;;